Time;durP1;ratioP1;P1;durP2;ratioP2;P2;SDS_P1;SDS_P2;PMS_P1;PMS_P2;Temp;Humidity;BMP_temperature;BMP_pressure;BME280_temperature;BME280_humidity;BME280_pressure;Samples;Min_cycle;Max_cycle;Signal;HPM_P1;HPM_P2
2023/01/14 00:01:14;;;;;;;;;;;8.20;90.50;;;;;;5013707;28;19913;-36
2023/01/14 00:03:39;;;;;;;;;;;8.20;90.50;;;;;;5013621;28;20004;-34
2023/01/14 00:06:05;;;;;;;;;;;8.20;90.40;;;;;;5013562;28;19964;-37
2023/01/14 00:08:31;;;;;;;;;;;8.20;90.40;;;;;;5013520;28;19914;-47
2023/01/14 00:11:00;;;;;;;;;;;8.20;90.40;;;;;;5013684;28;19965;-36
2023/01/14 00:13:26;;;;;;;;;;;8.20;90.30;;;;;;5013789;28;19914;-35
2023/01/14 00:15:52;;;;;;;;;;;8.20;90.30;;;;;;5013812;28;20353;-35
2023/01/14 00:18:18;;;;;;;;;;;8.20;90.30;;;;;;5013806;28;19991;-35
2023/01/14 00:20:53;;;;;;;;;;;8.10;90.30;;;;;;5013649;28;19920;-38
2023/01/14 00:23:19;;;;;;;;;;;8.10;90.20;;;;;;5013429;28;20373;-34
2023/01/14 00:25:44;;;;;;;;;;;8.10;90.20;;;;;;5013517;28;19963;-40
2023/01/14 00:28:10;;;;;;;;;;;8.00;90.20;;;;;;5013297;28;19996;-28
2023/01/14 00:30:35;;;;;;;;;;;8.00;90.30;;;;;;5013456;28;19972;-29
2023/01/14 00:33:01;;;;;;;;;;;7.90;90.30;;;;;;5013352;28;19940;-29
2023/01/14 00:35:26;;;;;;;;;;;7.90;90.30;;;;;;5013159;28;19925;-34
2023/01/14 00:37:52;;;;;;;;;;;7.90;90.40;;;;;;5013350;28;20361;-31
2023/01/14 00:40:17;;;;;;;;;;;7.80;90.40;;;;;;5013058;28;19914;-36
2023/01/14 00:42:43;;;;;;;;;;;7.70;90.50;;;;;;5013031;28;19920;-37
2023/01/14 00:45:08;;;;;;;;;;;7.70;90.50;;;;;;5012961;28;19913;-30
2023/01/14 00:47:34;;;;;;;;;;;7.70;90.60;;;;;;5013016;28;19918;-30
2023/01/14 00:50:00;;;;;;;;;;;7.70;90.60;;;;;;5012839;28;20270;-31
2023/01/14 00:52:25;;;;;;;;;;;7.70;90.60;;;;;;5012596;28;19921;-34
2023/01/14 00:54:51;;;;;;;;;;;7.70;90.60;;;;;;5012939;28;19917;-31
2023/01/14 00:57:16;;;;;;;;;;;7.70;90.70;;;;;;5012812;28;19972;-29
2023/01/14 00:59:42;;;;;;;;;;;7.70;90.70;;;;;;5012869;28;19960;-31
2023/01/14 01:02:07;;;;;;;;;;;7.70;90.60;;;;;;5012701;28;20437;-47
2023/01/14 01:04:33;;;;;;;;;;;7.70;90.60;;;;;;4994939;28;19913;-30
2023/01/14 01:06:59;;;;;;;;;;;7.70;90.60;;;;;;5012648;28;19917;-29
2023/01/14 01:09:24;;;;;;;;;;;7.80;90.60;;;;;;5012627;28;19914;-30
2023/01/14 01:11:50;;;;;;;;;;;7.80;90.60;;;;;;5012767;28;19920;-29
2023/01/14 01:14:15;;;;;;;;;;;7.90;90.60;;;;;;5012359;28;20008;-30
2023/01/14 01:16:42;;;;;;;;;;;7.90;90.60;;;;;;5012456;28;19959;-41
2023/01/14 01:19:07;;;;;;;;;;;7.90;90.60;;;;;;5012505;28;19913;-33
2023/01/14 01:21:33;;;;;;;;;;;7.90;90.50;;;;;;5012346;28;19914;-29
2023/01/14 01:23:58;;;;;;;;;;;7.90;90.60;;;;;;5012730;28;19913;-32
2023/01/14 01:26:24;;;;;;;;;;;7.90;90.60;;;;;;5012238;28;19913;-32
2023/01/14 01:28:52;;;;;;;;;;;7.80;90.60;;;;;;5012576;28;20412;-29
2023/01/14 01:31:18;;;;;;;;;;;7.80;90.60;;;;;;4995004;28;20334;-31
2023/01/14 01:33:44;;;;;;;;;;;7.80;90.60;;;;;;5012409;28;19917;-30
2023/01/14 01:36:23;;;;;;;;;;;7.80;90.60;;;;;;5012073;28;19922;-29
2023/01/14 01:38:49;;;;;;;;;;;7.80;90.60;;;;;;5012113;28;19914;-30
2023/01/14 01:41:15;;;;;;;;;;;7.70;90.60;;;;;;5012435;28;19920;-31
2023/01/14 01:43:59;;;;;;;;;;;7.70;90.60;;;;;;5012416;28;19913;-31
2023/01/14 01:46:25;;;;;;;;;;;7.70;90.70;;;;;;5012493;28;19921;-29
2023/01/14 01:48:51;;;;;;;;;;;7.60;90.70;;;;;;5012140;28;19914;-36
2023/01/14 01:51:18;;;;;;;;;;;7.60;90.70;;;;;;5012488;28;19918;-38
2023/01/14 01:53:45;;;;;;;;;;;7.60;90.70;;;;;;5012360;28;19917;-32
2023/01/14 01:56:12;;;;;;;;;;;7.60;90.70;;;;;;5012034;28;19917;-31
2023/01/14 01:58:39;;;;;;;;;;;7.60;90.70;;;;;;5012125;28;19920;-29
2023/01/14 02:01:04;;;;;;;;;;;7.50;90.70;;;;;;5012155;28;19914;-29
2023/01/14 02:03:38;;;;;;;;;;;7.50;90.70;;;;;;5013913;28;19921;-32
2023/01/14 02:06:04;;;;;;;;;;;7.50;90.70;;;;;;5016036;28;19921;-37
2023/01/14 02:08:30;;;;;;;;;;;7.50;90.70;;;;;;5016122;28;19917;-32
2023/01/14 02:11:05;;;;;;;;;;;7.40;90.70;;;;;;5016356;28;20028;-31
2023/01/14 02:13:45;;;;;;;;;;;7.40;90.80;;;;;;5015746;28;19914;-33
2023/01/14 02:16:16;;;;;;;;;;;7.40;90.80;;;;;;5015863;28;20001;-36
2023/01/14 02:19:01;;;;;;;;;;;7.30;90.80;;;;;;5015497;28;19915;-30
2023/01/14 02:21:31;;;;;;;;;;;7.30;90.80;;;;;;5015309;28;20036;-30
2023/01/14 02:24:16;;;;;;;;;;;7.30;90.80;;;;;;5015527;28;19972;-29
2023/01/14 02:26:42;;;;;;;;;;;7.30;90.80;;;;;;5014780;28;19968;-30
2023/01/14 02:29:32;;;;;;;;;;;7.30;90.90;;;;;;5015611;28;19913;-29
2023/01/14 02:32:20;;;;;;;;;;;7.40;90.90;;;;;;5015414;28;19913;-29
2023/01/14 02:34:50;;;;;;;;;;;7.40;90.80;;;;;;5015058;28;20013;-38
2023/01/14 02:37:22;;;;;;;;;;;7.30;90.80;;;;;;5015152;28;19917;-29
2023/01/14 02:39:47;;;;;;;;;;;7.30;90.80;;;;;;5014987;28;19920;-39
2023/01/14 02:45:08;;;;;;;;;;;7.20;90.80;;;;;;5015058;28;19936;-31
2023/01/14 02:47:34;;;;;;;;;;;7.20;90.80;;;;;;5015143;28;19936;-31
2023/01/14 02:50:00;;;;;;;;;;;7.10;91.10;;;;;;5014844;28;19956;-30
2023/01/14 02:52:27;;;;;;;;;;;7.10;90.80;;;;;;5015236;28;20000;-31
2023/01/14 02:54:56;;;;;;;;;;;7.10;90.80;;;;;;5015081;28;19922;-36
2023/01/14 02:57:32;;;;;;;;;;;7.00;90.80;;;;;;4997305;28;19914;-30
2023/01/14 03:00:16;;;;;;;;;;;7.00;90.80;;;;;;5015003;28;19914;-29
2023/01/14 03:02:56;;;;;;;;;;;7.00;90.80;;;;;;5014511;28;19914;-28
2023/01/14 03:05:34;;;;;;;;;;;7.00;90.90;;;;;;5014646;28;20396;-27
2023/01/14 03:08:06;;;;;;;;;;;6.90;90.90;;;;;;5014775;28;19959;-27
2023/01/14 03:10:52;;;;;;;;;;;6.90;91.10;;;;;;5014475;28;19949;-29
2023/01/14 03:13:22;;;;;;;;;;;6.90;90.90;;;;;;5013773;28;20001;-28
2023/01/14 03:16:11;;;;;;;;;;;6.90;90.90;;;;;;5013617;28;19918;-30
2023/01/14 03:18:55;;;;;;;;;;;6.90;90.80;;;;;;5006178;28;20383;-28
2023/01/14 03:21:23;;;;;;;;;;;6.90;90.80;;;;;;5014315;28;19924;-30
2023/01/14 03:23:55;;;;;;;;;;;6.90;90.80;;;;;;4996570;28;20296;-28
2023/01/14 03:26:22;;;;;;;;;;;6.90;90.90;;;;;;5014463;28;19913;-30
2023/01/14 03:28:49;;;;;;;;;;;6.90;90.90;;;;;;5014220;28;19979;-31
2023/01/14 03:31:18;;;;;;;;;;;6.90;90.90;;;;;;5014372;28;19913;-29
2023/01/14 03:33:47;;;;;;;;;;;6.90;90.90;;;;;;5014448;28;19917;-29
2023/01/14 03:36:12;;;;;;;;;;;6.90;90.90;;;;;;5014161;28;19917;-28
2023/01/14 03:38:41;;;;;;;;;;;6.90;90.90;;;;;;5014463;28;19917;-28
2023/01/14 03:41:08;;;;;;;;;;;6.90;90.90;;;;;;5014141;28;19918;-28
2023/01/14 03:43:47;;;;;;;;;;;6.90;90.90;;;;;;5013853;28;20245;-30
2023/01/14 03:46:13;;;;;;;;;;;6.90;90.90;;;;;;5013916;28;19914;-30
2023/01/14 03:48:39;;;;;;;;;;;6.90;91.00;;;;;;5013813;28;19913;-30
2023/01/14 03:51:18;;;;;;;;;;;6.90;91.00;;;;;;5013708;28;19913;-28
2023/01/14 03:53:58;;;;;;;;;;;6.90;91.00;;;;;;5013407;28;19922;-34
2023/01/14 03:56:26;;;;;;;;;;;6.90;90.90;;;;;;5013620;28;19925;-29
2023/01/14 03:59:02;;;;;;;;;;;6.90;90.90;;;;;;5013750;28;19920;-29
2023/01/14 04:01:31;;;;;;;;;;;6.90;90.90;;;;;;5013555;28;19914;-28
2023/01/14 04:03:57;;;;;;;;;;;6.90;90.90;;;;;;5013348;28;19917;-42
2023/01/14 04:06:22;;;;;;;;;;;6.90;90.90;;;;;;5013640;28;20365;-30
2023/01/14 04:08:48;;;;;;;;;;;6.90;90.90;;;;;;5013461;28;19920;-28
2023/01/14 04:11:14;;;;;;;;;;;6.90;90.90;;;;;;5013447;28;19914;-28
2023/01/14 04:16:23;;;;;;;;;;;6.90;90.90;;;;;;5013811;28;19940;-28
2023/01/14 04:18:49;;;;;;;;;;;6.90;90.90;;;;;;5013596;28;19913;-37
2023/01/14 04:21:14;;;;;;;;;;;6.90;90.90;;;;;;5013444;28;19924;-37
2023/01/14 04:23:40;;;;;;;;;;;6.90;90.90;;;;;;5013327;28;19936;-29
2023/01/14 04:26:05;;;;;;;;;;;7.00;91.00;;;;;;5012816;28;19914;-33
2023/01/14 04:28:31;;;;;;;;;;;7.00;91.00;;;;;;5013209;28;19914;-28
2023/01/14 04:30:56;;;;;;;;;;;7.00;90.90;;;;;;5013418;28;19917;-28
2023/01/14 04:33:22;;;;;;;;;;;7.00;90.90;;;;;;5013216;28;19913;-28
2023/01/14 04:35:48;;;;;;;;;;;7.10;90.90;;;;;;5012933;28;19917;-30
2023/01/14 04:38:14;;;;;;;;;;;7.10;90.90;;;;;;5013129;28;19914;-28
2023/01/14 04:40:40;;;;;;;;;;;7.10;90.80;;;;;;5012984;28;19920;-27
2023/01/14 04:43:05;;;;;;;;;;;7.10;90.80;;;;;;5012705;28;19973;-33
2023/01/14 04:45:31;;;;;;;;;;;7.20;90.80;;;;;;5012724;28;19921;-34
2023/01/14 04:47:56;;;;;;;;;;;7.20;90.80;;;;;;5012636;28;20000;-30
2023/01/14 04:50:30;;;;;;;;;;;7.30;90.80;;;;;;5012736;28;19914;-36
2023/01/14 04:53:02;;;;;;;;;;;7.30;90.80;;;;;;5012882;28;19936;-40
2023/01/14 04:55:28;;;;;;;;;;;7.30;90.80;;;;;;5012691;28;19944;-27
2023/01/14 04:57:53;;;;;;;;;;;7.30;90.80;;;;;;5012551;28;19921;-28
2023/01/14 05:00:19;;;;;;;;;;;7.30;90.80;;;;;;5012611;28;19914;-27
2023/01/14 05:02:44;;;;;;;;;;;7.30;90.80;;;;;;5012260;28;20400;-35
2023/01/14 05:05:10;;;;;;;;;;;7.30;90.80;;;;;;5012560;28;20007;-27
2023/01/14 05:07:35;;;;;;;;;;;7.30;90.80;;;;;;5012512;28;19979;-31
2023/01/14 05:10:01;;;;;;;;;;;7.30;90.80;;;;;;5012163;28;19913;-31
2023/01/14 05:12:26;;;;;;;;;;;7.30;90.80;;;;;;5012373;28;19918;-28
2023/01/14 05:14:52;;;;;;;;;;;7.30;90.80;;;;;;5012151;28;20052;-29
2023/01/14 05:17:17;;;;;;;;;;;7.30;90.80;;;;;;5012378;28;20395;-29
2023/01/14 05:19:42;;;;;;;;;;;7.30;90.80;;;;;;5012144;28;19920;-28
2023/01/14 05:22:08;;;;;;;;;;;7.30;90.80;;;;;;5012226;28;19913;-28
2023/01/14 05:24:33;;;;;;;;;;;7.30;90.80;;;;;;5012495;28;19980;-28
2023/01/14 05:26:59;;;;;;;;;;;7.30;90.80;;;;;;5012249;28;19921;-26
2023/01/14 05:29:24;;;;;;;;;;;7.30;90.90;;;;;;5012255;28;19913;-31
2023/01/14 05:31:50;;;;;;;;;;;7.30;90.90;;;;;;5012131;28;19913;-40
2023/01/14 05:34:17;;;;;;;;;;;7.30;90.80;;;;;;5012085;28;19918;-39
2023/01/14 05:36:43;;;;;;;;;;;7.30;90.90;;;;;;5011931;28;19918;-30
2023/01/14 05:39:08;;;;;;;;;;;7.30;90.90;;;;;;5011105;28;19920;-36
2023/01/14 05:41:33;;;;;;;;;;;7.30;90.90;;;;;;5011851;28;19961;-27
2023/01/14 05:46:45;;;;;;;;;;;7.30;90.90;;;;;;5012213;28;20022;-28
2023/01/14 05:49:10;;;;;;;;;;;7.30;90.90;;;;;;5012108;28;20000;-33
2023/01/14 05:51:35;;;;;;;;;;;7.30;90.90;;;;;;5011796;28;19960;-31
2023/01/14 05:54:01;;;;;;;;;;;7.30;90.90;;;;;;5011986;28;19921;-29
2023/01/14 05:56:26;;;;;;;;;;;7.30;91.00;;;;;;5011654;28;19925;-29
2023/01/14 05:58:52;;;;;;;;;;;7.30;90.90;;;;;;5011740;28;20413;-29
2023/01/14 06:06:47;;;;;;;;;;;7.20;91.00;;;;;;5012124;28;19916;-28
2023/01/14 06:09:14;;;;;;;;;;;7.30;91.00;;;;;;5011819;28;19971;-28
2023/01/14 06:11:42;;;;;;;;;;;7.30;91.00;;;;;;5011684;28;19917;-28
2023/01/14 06:14:08;;;;;;;;;;;7.30;91.00;;;;;;5011998;28;19980;-30
2023/01/14 06:16:39;;;;;;;;;;;7.30;91.10;;;;;;5011868;28;19909;-34
2023/01/14 06:19:06;;;;;;;;;;;7.30;91.10;;;;;;5012172;28;19952;-29
2023/01/14 06:21:32;;;;;;;;;;;7.30;91.10;;;;;;5011891;28;19917;-28
2023/01/14 06:23:58;;;;;;;;;;;7.30;91.10;;;;;;5011984;28;19909;-28
2023/01/14 06:26:27;;;;;;;;;;;7.30;91.10;;;;;;5011967;28;20086;-28
2023/01/14 06:28:56;;;;;;;;;;;7.30;91.00;;;;;;5012160;28;19948;-32
2023/01/14 06:31:22;;;;;;;;;;;7.30;91.00;;;;;;5011756;28;19910;-26
2023/01/14 06:33:47;;;;;;;;;;;7.30;91.00;;;;;;5011850;28;19920;-30
2023/01/14 06:36:13;;;;;;;;;;;7.40;91.00;;;;;;5011411;28;19918;-29
2023/01/14 06:38:39;;;;;;;;;;;7.40;91.00;;;;;;5011536;28;19917;-28
2023/01/14 06:41:06;;;;;;;;;;;7.40;91.00;;;;;;5011785;28;20369;-40
2023/01/14 06:43:32;;;;;;;;;;;7.40;91.00;;;;;;5011265;28;20004;-29
2023/01/14 06:45:57;;;;;;;;;;;7.40;91.00;;;;;;5011500;28;19910;-28
2023/01/14 06:48:24;;;;;;;;;;;7.40;90.90;;;;;;5011722;28;19956;-28
2023/01/14 06:50:50;;;;;;;;;;;7.40;90.90;;;;;;5015015;28;20331;-27
2023/01/14 06:53:15;;;;;;;;;;;7.50;90.90;;;;;;5015062;28;19996;-28
2023/01/14 06:55:41;;;;;;;;;;;7.50;91.00;;;;;;5015208;28;19924;-28
2023/01/14 06:58:06;;;;;;;;;;;7.50;91.00;;;;;;5015054;28;19913;-33
2023/01/14 07:00:32;;;;;;;;;;;7.50;91.10;;;;;;5015019;28;19917;-28
2023/01/14 07:02:57;;;;;;;;;;;7.50;91.10;;;;;;5014565;28;20262;-28
2023/01/14 07:05:23;;;;;;;;;;;7.60;91.10;;;;;;5014593;28;20388;-28
2023/01/14 07:07:48;;;;;;;;;;;7.60;91.00;;;;;;5014797;28;19953;-31
2023/01/14 07:10:15;;;;;;;;;;;7.60;91.00;;;;;;5014525;28;19920;-28
2023/01/14 07:12:58;;;;;;;;;;;7.60;91.00;;;;;;5014780;28;19942;-35
2023/01/14 07:15:24;;;;;;;;;;;7.60;90.90;;;;;;5014536;28;19913;-34
2023/01/14 07:17:49;;;;;;;;;;;7.60;91.00;;;;;;5014836;28;20432;-31
2023/01/14 07:20:15;;;;;;;;;;;7.60;91.00;;;;;;5015009;28;20010;-30
2023/01/14 07:22:41;;;;;;;;;;;7.60;91.00;;;;;;5014854;28;19910;-27
2023/01/14 07:25:07;;;;;;;;;;;7.60;91.00;;;;;;5014765;28;20387;-28
2023/01/14 07:27:32;;;;;;;;;;;7.60;91.00;;;;;;5014466;28;19909;-28
2023/01/14 07:29:58;;;;;;;;;;;7.60;91.00;;;;;;5014256;28;20265;-27
2023/01/14 07:32:24;;;;;;;;;;;7.60;91.00;;;;;;5014362;28;19909;-28
2023/01/14 07:34:50;;;;;;;;;;;7.70;91.00;;;;;;5013933;28;19917;-30
2023/01/14 07:37:16;;;;;;;;;;;7.60;91.00;;;;;;5013998;28;20232;-29
2023/01/14 07:39:42;;;;;;;;;;;7.60;91.10;;;;;;5014115;28;20439;-33
2023/01/14 07:42:07;;;;;;;;;;;7.60;91.10;;;;;;5014270;28;19910;-35
2023/01/14 07:44:33;;;;;;;;;;;7.60;91.10;;;;;;5013889;28;20373;-29
2023/01/14 07:46:58;;;;;;;;;;;7.60;91.00;;;;;;5013971;28;19910;-28
2023/01/14 07:49:24;;;;;;;;;;;7.70;91.10;;;;;;5014169;28;19936;-32
2023/01/14 07:51:50;;;;;;;;;;;7.60;91.20;;;;;;5013754;28;20004;-31
2023/01/14 07:54:17;;;;;;;;;;;7.60;91.30;;;;;;5013883;28;20262;-29
2023/01/14 07:56:42;;;;;;;;;;;7.70;91.40;;;;;;5013628;28;19916;-35
2023/01/14 07:59:08;;;;;;;;;;;7.60;91.30;;;;;;5013542;28;19910;-30
2023/01/14 08:01:33;;;;;;;;;;;7.60;91.50;;;;;;5012697;28;19933;-31
2023/01/14 08:03:59;;;;;;;;;;;7.60;91.60;;;;;;5013530;28;19988;-30
2023/01/14 08:06:24;;;;;;;;;;;7.60;91.50;;;;;;5013364;28;19959;-29
2023/01/14 08:08:50;;;;;;;;;;;7.60;91.60;;;;;;4995523;28;19909;-27
2023/01/14 08:11:15;;;;;;;;;;;7.60;91.60;;;;;;5013146;28;19960;-33
2023/01/14 08:13:41;;;;;;;;;;;7.60;91.60;;;;;;5013048;28;20357;-29
2023/01/14 08:16:09;;;;;;;;;;;7.60;91.60;;;;;;5013293;28;19913;-29
2023/01/14 08:18:35;;;;;;;;;;;7.60;91.60;;;;;;5013270;28;19997;-28
2023/01/14 08:21:03;;;;;;;;;;;7.60;91.60;;;;;;5013453;28;19917;-34
2023/01/14 08:23:28;;;;;;;;;;;7.60;91.60;;;;;;5013241;28;20349;-30
2023/01/14 08:25:53;;;;;;;;;;;7.60;91.70;;;;;;5012979;28;20029;-29
2023/01/14 08:28:19;;;;;;;;;;;7.60;91.70;;;;;;5013148;28;19916;-34
2023/01/14 08:30:45;;;;;;;;;;;7.60;91.80;;;;;;5013467;28;19965;-38
2023/01/14 08:33:10;;;;;;;;;;;7.60;92.10;;;;;;5013582;28;19916;-33
2023/01/14 08:35:39;;;;;;;;;;;7.70;92.20;;;;;;4995188;28;20015;-33
2023/01/14 08:38:05;;;;;;;;;;;7.70;92.20;;;;;;5013183;28;20436;-44
2023/01/14 08:40:31;;;;;;;;;;;7.70;92.10;;;;;;4995075;28;19910;-28
2023/01/14 08:42:57;;;;;;;;;;;7.70;92.10;;;;;;5012814;28;20342;-28
2023/01/14 08:45:22;;;;;;;;;;;7.70;92.10;;;;;;4995481;28;20366;-28
2023/01/14 08:47:47;;;;;;;;;;;7.70;92.10;;;;;;5012657;28;20369;-28
2023/01/14 08:50:13;;;;;;;;;;;7.80;92.10;;;;;;5012912;28;20081;-30
2023/01/14 08:52:38;;;;;;;;;;;7.80;92.00;;;;;;5012418;28;19909;-36
2023/01/14 08:55:04;;;;;;;;;;;7.80;92.00;;;;;;5012766;28;19917;-31
2023/01/14 08:57:30;;;;;;;;;;;7.80;92.00;;;;;;5012536;28;19910;-28
2023/01/14 08:59:55;;;;;;;;;;;7.80;92.00;;;;;;5012520;28;19925;-31
2023/01/14 09:02:20;;;;;;;;;;;7.80;92.00;;;;;;5012607;28;19909;-34
2023/01/14 09:04:46;;;;;;;;;;;7.90;92.10;;;;;;5012519;28;20357;-32
2023/01/14 09:18:08;;;;;;;;;;;8.00;92.30;;;;;;5012950;28;19960;-29
2023/01/14 09:20:38;;;;;;;;;;;8.10;92.40;;;;;;5012188;28;19913;-32
2023/01/14 09:23:05;;;;;;;;;;;8.00;92.30;;;;;;5012539;28;19913;-36
2023/01/14 09:25:31;;;;;;;;;;;8.10;92.30;;;;;;5012387;28;19909;-28
2023/01/14 09:27:56;;;;;;;;;;;8.10;92.30;;;;;;5012301;28;19913;-37
2023/01/14 09:30:22;;;;;;;;;;;8.10;92.30;;;;;;5012262;28;20000;-29
2023/01/14 09:32:47;;;;;;;;;;;8.10;92.30;;;;;;5012186;28;19910;-29
2023/01/14 09:35:13;;;;;;;;;;;8.20;92.40;;;;;;5012018;28;19923;-30
2023/01/14 09:37:38;;;;;;;;;;;8.20;92.30;;;;;;5012317;28;19972;-27
2023/01/14 09:40:04;;;;;;;;;;;8.20;92.30;;;;;;5012019;28;20443;-34
2023/01/14 09:42:31;;;;;;;;;;;8.30;92.20;;;;;;5012019;28;19932;-28
2023/01/14 09:45:05;;;;;;;;;;;8.30;92.20;;;;;;5012251;28;20380;-28
2023/01/14 09:47:31;;;;;;;;;;;8.30;92.20;;;;;;5011480;28;19910;-27
2023/01/14 09:49:56;;;;;;;;;;;8.30;92.20;;;;;;5011908;28;19955;-28
2023/01/14 09:52:22;;;;;;;;;;;8.30;92.30;;;;;;5012016;28;19910;-27
2023/01/14 09:54:53;;;;;;;;;;;8.30;92.20;;;;;;5011695;28;20388;-28
2023/01/14 09:57:27;;;;;;;;;;;8.30;92.20;;;;;;5012082;28;19920;-27
2023/01/14 10:00:12;;;;;;;;;;;8.30;92.20;;;;;;5011827;28;19914;-27
2023/01/14 10:02:40;;;;;;;;;;;8.30;92.20;;;;;;5011617;28;19910;-27
2023/01/14 10:05:20;;;;;;;;;;;8.30;92.20;;;;;;5012156;28;20054;-29
2023/01/14 10:07:46;;;;;;;;;;;8.40;92.20;;;;;;5012043;28;20401;-29
2023/01/14 10:10:32;;;;;;;;;;;8.40;92.20;;;;;;5011959;28;19916;-30
2023/01/14 10:13:04;;;;;;;;;;;8.50;92.20;;;;;;5011358;28;20361;-27
2023/01/14 10:15:37;;;;;;;;;;;8.50;92.20;;;;;;5011437;28;20400;-28
2023/01/14 10:18:11;;;;;;;;;;;8.50;92.10;;;;;;5011593;28;19910;-27
2023/01/14 10:20:43;;;;;;;;;;;8.50;92.10;;;;;;5011445;28;19921;-28
2023/01/14 10:23:13;;;;;;;;;;;8.60;92.10;;;;;;5011656;28;19916;-28
2023/01/14 10:25:42;;;;;;;;;;;8.60;92.20;;;;;;5015241;28;19910;-25
2023/01/14 10:28:12;;;;;;;;;;;8.50;92.20;;;;;;5015491;28;19910;-29
2023/01/14 10:30:38;;;;;;;;;;;8.60;92.20;;;;;;5015494;28;19910;-30
2023/01/14 10:33:04;;;;;;;;;;;8.60;92.20;;;;;;5015642;28;20277;-30
2023/01/14 10:35:32;;;;;;;;;;;8.60;92.20;;;;;;5015051;28;20395;-26
2023/01/14 10:37:57;;;;;;;;;;;8.60;92.20;;;;;;5015407;28;20293;-26
2023/01/14 10:40:24;;;;;;;;;;;8.60;92.20;;;;;;5015729;28;19920;-45
2023/01/14 10:42:51;;;;;;;;;;;8.60;92.20;;;;;;5015351;28;19918;-27
2023/01/14 10:45:16;;;;;;;;;;;8.70;92.20;;;;;;5014951;28;19917;-29
2023/01/14 10:47:43;;;;;;;;;;;8.70;92.20;;;;;;5014933;28;19963;-25
2023/01/14 10:50:20;;;;;;;;;;;8.70;92.20;;;;;;5014878;28;19964;-29
2023/01/14 10:52:45;;;;;;;;;;;8.70;92.20;;;;;;5014978;28;19960;-29
2023/01/14 10:55:11;;;;;;;;;;;8.70;92.20;;;;;;5015081;28;19925;-26
2023/01/14 10:57:39;;;;;;;;;;;8.70;92.30;;;;;;5015014;28;19961;-26
2023/01/14 11:00:08;;;;;;;;;;;8.80;92.30;;;;;;5015043;28;19959;-29
2023/01/14 11:02:44;;;;;;;;;;;8.80;92.30;;;;;;5015170;28;19921;-27
2023/01/14 11:05:26;;;;;;;;;;;8.80;92.60;;;;;;5014704;28;19983;-30
2023/01/14 11:07:53;;;;;;;;;;;8.90;92.30;;;;;;5014823;28;19913;-27
2023/01/14 11:10:21;;;;;;;;;;;8.90;92.30;;;;;;5014870;28;19992;-30
2023/01/14 11:12:46;;;;;;;;;;;9.00;92.30;;;;;;5014797;28;19917;-26
2023/01/14 11:15:32;;;;;;;;;;;9.00;92.20;;;;;;5014917;28;19926;-27
2023/01/14 11:18:14;;;;;;;;;;;9.00;92.20;;;;;;5014476;28;19921;-27
2023/01/14 11:20:40;;;;;;;;;;;9.10;92.20;;;;;;5014595;28;20421;-28
2023/01/14 11:23:13;;;;;;;;;;;9.10;92.20;;;;;;5014657;28;19949;-26
2023/01/14 11:25:41;;;;;;;;;;;9.10;92.20;;;;;;5014508;28;19913;-41
2023/01/14 11:28:07;;;;;;;;;;;9.10;92.20;;;;;;5014449;28;19921;-37
2023/01/14 11:30:33;;;;;;;;;;;9.10;92.20;;;;;;5014164;28;19920;-40
2023/01/14 11:32:59;;;;;;;;;;;9.20;92.20;;;;;;5013993;28;20365;-36
2023/01/14 11:35:29;;;;;;;;;;;9.20;92.20;;;;;;5013337;28;20428;-32
2023/01/14 11:37:54;;;;;;;;;;;9.20;92.20;;;;;;5014069;28;19963;-36
2023/01/14 11:41:28;;;;;;;;;;;9.30;92.20;;;;;;4996410;28;19937;-32
2023/01/14 11:43:11;;;;;;;;;;;9.20;92.20;;;;;;5014027;28;20266;-32
2023/01/14 11:45:37;;;;;;;;;;;9.30;92.20;;;;;;5013999;28;20004;-33
2023/01/14 11:48:21;;;;;;;;;;;9.30;92.20;;;;;;5014083;28;19920;-32
2023/01/14 11:50:54;;;;;;;;;;;9.30;92.20;;;;;;5014018;28;19914;-32
2023/01/14 11:53:26;;;;;;;;;;;9.30;92.20;;;;;;5014155;28;19921;-32
2023/01/14 11:55:54;;;;;;;;;;;9.40;92.20;;;;;;5014150;28;20025;-32
2023/01/14 11:58:21;;;;;;;;;;;9.40;92.20;;;;;;5014109;28;20281;-33
2023/01/14 12:00:52;;;;;;;;;;;9.40;92.20;;;;;;5013854;28;19914;-32
2023/01/14 12:03:24;;;;;;;;;;;9.50;92.20;;;;;;5013827;28;19967;-42
2023/01/14 12:05:52;;;;;;;;;;;9.40;92.20;;;;;;5013594;28;19921;-32
2023/01/14 12:08:20;;;;;;;;;;;9.50;92.20;;;;;;5013823;28;20373;-33
2023/01/14 12:10:47;;;;;;;;;;;9.50;92.30;;;;;;5013401;28;19946;-32
2023/01/14 12:16:59;;;;;;;;;;;9.60;92.30;;;;;;4941692;29;19919;-33
2023/01/14 12:19:25;;;;;;;;;;;9.60;92.30;;;;;;4952836;29;19978;-35
2023/01/14 12:21:54;;;;;;;;;;;9.60;92.30;;;;;;4984564;28;19952;-32
2023/01/14 12:24:26;;;;;;;;;;;9.70;92.30;;;;;;5013449;28;20300;-33
2023/01/14 12:26:53;;;;;;;;;;;9.70;92.30;;;;;;5013340;28;19920;-33
2023/01/14 12:29:23;;;;;;;;;;;9.70;92.30;;;;;;5013280;28;20020;-33
2023/01/14 12:32:18;;;;;;;;;;;9.70;92.30;;;;;;5013578;28;19960;-33
2023/01/14 12:34:43;;;;;;;;;;;9.70;92.30;;;;;;5000230;28;19956;-34
2023/01/14 12:37:14;;;;;;;;;;;9.70;92.30;;;;;;5012863;28;19918;-33
2023/01/14 12:45:44;;;;;;;;;;;9.80;92.30;;;;;;4971354;28;19914;-32
2023/01/14 12:48:17;;;;;;;;;;;9.80;92.30;;;;;;4971048;28;19915;-33
2023/01/14 12:50:44;;;;;;;;;;;9.80;92.40;;;;;;4995159;28;19913;-33
2023/01/14 12:53:16;;;;;;;;;;;9.80;92.30;;;;;;5012825;28;20302;-33
2023/01/14 12:55:44;;;;;;;;;;;9.80;92.30;;;;;;5012375;28;20012;-33
2023/01/14 12:58:30;;;;;;;;;;;9.80;92.30;;;;;;4995318;28;19913;-33
2023/01/14 13:00:58;;;;;;;;;;;9.80;92.30;;;;;;5011891;28;19917;-34
2023/01/14 13:03:31;;;;;;;;;;;9.80;92.30;;;;;;5012761;28;19914;-37
2023/01/14 13:05:59;;;;;;;;;;;9.80;92.30;;;;;;5012562;28;19920;-33
2023/01/14 13:08:28;;;;;;;;;;;9.80;92.30;;;;;;5012592;28;20369;-33
2023/01/14 13:11:04;;;;;;;;;;;9.80;92.30;;;;;;5012812;28;19917;-35
2023/01/14 13:13:33;;;;;;;;;;;9.80;92.30;;;;;;5012507;28;20059;-33
2023/01/14 13:15:59;;;;;;;;;;;9.80;92.30;;;;;;5012972;28;19944;-34
2023/01/14 13:18:30;;;;;;;;;;;9.90;92.40;;;;;;5012619;28;20011;-36
2023/01/14 13:20:56;;;;;;;;;;;9.90;92.40;;;;;;5012631;28;19913;-34
2023/01/14 13:23:48;;;;;;;;;;;9.90;92.40;;;;;;5012555;28;19979;-34
2023/01/14 13:26:20;;;;;;;;;;;9.90;92.40;;;;;;4989113;28;20004;-31
2023/01/14 13:29:15;;;;;;;;;;;9.90;92.40;;;;;;4994037;28;19914;-39
2023/01/14 13:31:41;;;;;;;;;;;9.90;92.40;;;;;;4998860;28;19984;-32
2023/01/14 13:34:28;;;;;;;;;;;9.90;92.40;;;;;;5012192;28;19957;-34
2023/01/14 13:37:00;;;;;;;;;;;9.90;92.40;;;;;;5001832;28;19960;-33
2023/01/14 13:39:26;;;;;;;;;;;9.90;92.40;;;;;;5012443;28;20384;-33
2023/01/14 13:41:52;;;;;;;;;;;10.00;92.40;;;;;;5012167;28;19913;-38
2023/01/14 13:44:21;;;;;;;;;;;10.00;92.40;;;;;;5012048;28;19920;-32
2023/01/14 13:46:49;;;;;;;;;;;10.00;92.40;;;;;;5012237;28;19918;-33
2023/01/14 13:49:30;;;;;;;;;;;10.00;92.40;;;;;;5012301;28;19913;-32
2023/01/14 13:51:57;;;;;;;;;;;10.00;92.50;;;;;;5012554;28;20000;-32
2023/01/14 13:54:28;;;;;;;;;;;10.00;92.40;;;;;;5012418;28;19953;-32
2023/01/14 13:57:08;;;;;;;;;;;10.00;92.40;;;;;;5012489;28;19924;-32
2023/01/14 13:59:35;;;;;;;;;;;10.10;92.50;;;;;;5014102;28;19913;-33
2023/01/14 14:02:01;;;;;;;;;;;10.10;92.50;;;;;;5016157;28;19913;-34
2023/01/14 14:04:45;;;;;;;;;;;10.10;92.50;;;;;;5016024;28;19923;-33
2023/01/14 14:07:30;;;;;;;;;;;10.10;92.50;;;;;;5015997;28;19913;-33
2023/01/14 14:10:06;;;;;;;;;;;10.10;92.50;;;;;;5016043;28;19921;-33
2023/01/14 14:15:21;;;;;;;;;;;10.10;92.50;;;;;;5015903;28;19932;-33
2023/01/14 14:17:50;;;;;;;;;;;10.10;92.60;;;;;;5015959;28;19925;-33
2023/01/14 14:20:17;;;;;;;;;;;10.20;92.60;;;;;;4999655;28;19913;-35
2023/01/14 14:22:53;;;;;;;;;;;10.20;92.60;;;;;;5017213;28;19921;-35
2023/01/14 14:25:20;;;;;;;;;;;10.20;92.60;;;;;;5016800;28;19914;-33
2023/01/14 14:27:47;;;;;;;;;;;10.20;92.70;;;;;;5016933;28;19948;-35
2023/01/14 14:30:33;;;;;;;;;;;10.20;92.70;;;;;;5016943;28;19941;-34
2023/01/14 14:32:58;;;;;;;;;;;10.20;92.70;;;;;;5016596;28;20369;-34
2023/01/14 14:35:24;;;;;;;;;;;10.30;92.70;;;;;;5016527;28;19932;-34
2023/01/14 14:37:49;;;;;;;;;;;10.30;92.70;;;;;;4999203;28;19996;-33
2023/01/14 14:40:19;;;;;;;;;;;10.30;92.70;;;;;;5016457;28;19920;-34
2023/01/14 14:42:45;;;;;;;;;;;10.30;92.70;;;;;;5016420;28;19917;-34
2023/01/14 14:45:40;;;;;;;;;;;10.30;92.70;;;;;;5016186;28;19913;-33
2023/01/14 14:48:21;;;;;;;;;;;10.30;92.70;;;;;;5003465;28;19913;-36
2023/01/14 14:50:47;;;;;;;;;;;10.40;92.80;;;;;;5016143;28;19961;-34
2023/01/14 14:53:32;;;;;;;;;;;10.40;92.80;;;;;;5016259;28;20041;-33
2023/01/14 14:56:00;;;;;;;;;;;10.40;92.80;;;;;;5016033;28;19921;-35
2023/01/14 14:58:26;;;;;;;;;;;10.40;92.80;;;;;;5016112;28;19924;-35
2023/01/14 15:00:57;;;;;;;;;;;10.40;92.80;;;;;;5016425;28;20341;-34
2023/01/14 15:03:23;;;;;;;;;;;10.40;92.80;;;;;;5016100;28;19963;-34
2023/01/14 15:05:50;;;;;;;;;;;10.50;92.80;;;;;;5016563;28;19920;-35
2023/01/14 15:08:18;;;;;;;;;;;10.50;92.90;;;;;;4998506;28;19964;-34
2023/01/14 15:10:44;;;;;;;;;;;10.50;92.80;;;;;;5015897;28;20012;-34
2023/01/14 15:13:39;;;;;;;;;;;10.50;92.80;;;;;;5016341;28;20376;-35
2023/01/14 15:16:10;;;;;;;;;;;10.60;92.80;;;;;;5002891;28;19921;-34